sensor_id;sensor_type;location;lat;lon;timestamp;P1;durP1;ratioP1;P2;durP2;ratioP2
74503;SDS011;62988;55.776;37.544;2023-07-13T00:01:28;2.55;;;1.30;;
74503;SDS011;62988;55.776;37.544;2023-07-13T00:03:54;2.88;;;1.33;;
74503;SDS011;62988;55.776;37.544;2023-07-13T00:06:20;3.90;;;1.20;;
74503;SDS011;62988;55.776;37.544;2023-07-13T00:08:46;3.50;;;1.30;;
74503;SDS011;62988;55.776;37.544;2023-07-13T00:11:12;3.65;;;1.30;;
74503;SDS011;62988;55.776;37.544;2023-07-13T00:13:38;3.50;;;1.40;;
74503;SDS011;62988;55.776;37.544;2023-07-13T00:16:04;2.83;;;1.30;;
74503;SDS011;62988;55.776;37.544;2023-07-13T00:18:30;4.57;;;1.35;;
74503;SDS011;62988;55.776;37.544;2023-07-13T00:20:55;3.03;;;1.60;;
74503;SDS011;62988;55.776;37.544;2023-07-13T00:23:22;4.28;;;1.55;;
74503;SDS011;62988;55.776;37.544;2023-07-13T00:25:48;3.85;;;1.70;;
74503;SDS011;62988;55.776;37.544;2023-07-13T00:28:15;4.22;;;1.63;;
74503;SDS011;62988;55.776;37.544;2023-07-13T00:30:41;6.53;;;2.30;;
74503;SDS011;62988;55.776;37.544;2023-07-13T00:33:06;3.73;;;1.40;;
74503;SDS011;62988;55.776;37.544;2023-07-13T00:35:32;3.25;;;1.63;;
74503;SDS011;62988;55.776;37.544;2023-07-13T00:37:58;4.30;;;1.60;;
74503;SDS011;62988;55.776;37.544;2023-07-13T00:40:23;3.67;;;1.70;;
74503;SDS011;62988;55.776;37.544;2023-07-13T00:42:51;3.42;;;1.52;;
74503;SDS011;62988;55.776;37.544;2023-07-13T00:47:44;2.92;;;1.40;;
74503;SDS011;62988;55.776;37.544;2023-07-13T00:50:10;3.23;;;1.53;;
74503;SDS011;62988;55.776;37.544;2023-07-13T00:52:38;3.85;;;1.65;;
74503;SDS011;62988;55.776;37.544;2023-07-13T00:55:04;5.00;;;1.70;;
74503;SDS011;62988;55.776;37.544;2023-07-13T00:57:30;4.55;;;1.70;;
74503;SDS011;62988;55.776;37.544;2023-07-13T00:59:57;4.85;;;1.83;;
74503;SDS011;62988;55.776;37.544;2023-07-13T01:02:23;3.85;;;1.60;;
74503;SDS011;62988;55.776;37.544;2023-07-13T01:04:49;3.17;;;1.77;;
74503;SDS011;62988;55.776;37.544;2023-07-13T01:07:14;3.22;;;1.58;;
74503;SDS011;62988;55.776;37.544;2023-07-13T01:09:40;6.20;;;1.67;;
74503;SDS011;62988;55.776;37.544;2023-07-13T01:12:05;4.55;;;1.58;;
74503;SDS011;62988;55.776;37.544;2023-07-13T01:14:31;6.00;;;1.60;;
74503;SDS011;62988;55.776;37.544;2023-07-13T01:16:56;3.00;;;1.27;;
74503;SDS011;62988;55.776;37.544;2023-07-13T01:19:44;3.20;;;1.60;;
74503;SDS011;62988;55.776;37.544;2023-07-13T01:24:36;3.17;;;1.08;;
74503;SDS011;62988;55.776;37.544;2023-07-13T01:27:02;4.43;;;1.98;;
74503;SDS011;62988;55.776;37.544;2023-07-13T01:29:28;4.28;;;1.45;;
74503;SDS011;62988;55.776;37.544;2023-07-13T01:31:53;3.78;;;1.48;;
74503;SDS011;62988;55.776;37.544;2023-07-13T01:34:18;3.73;;;1.20;;
74503;SDS011;62988;55.776;37.544;2023-07-13T01:36:44;5.95;;;2.17;;
74503;SDS011;62988;55.776;37.544;2023-07-13T01:39:09;2.73;;;1.67;;
74503;SDS011;62988;55.776;37.544;2023-07-13T01:41:34;4.33;;;2.00;;
74503;SDS011;62988;55.776;37.544;2023-07-13T01:44:00;8.27;;;2.00;;
74503;SDS011;62988;55.776;37.544;2023-07-13T01:46:25;6.03;;;1.63;;
74503;SDS011;62988;55.776;37.544;2023-07-13T01:48:51;3.40;;;1.42;;
74503;SDS011;62988;55.776;37.544;2023-07-13T01:51:17;3.78;;;1.60;;
74503;SDS011;62988;55.776;37.544;2023-07-13T01:53:43;5.72;;;1.58;;
74503;SDS011;62988;55.776;37.544;2023-07-13T01:56:08;6.35;;;1.90;;
74503;SDS011;62988;55.776;37.544;2023-07-13T01:58:33;6.07;;;1.93;;
74503;SDS011;62988;55.776;37.544;2023-07-13T02:00:59;3.07;;;1.60;;
74503;SDS011;62988;55.776;37.544;2023-07-13T02:03:24;3.40;;;1.67;;
74503;SDS011;62988;55.776;37.544;2023-07-13T02:05:49;5.83;;;2.10;;
74503;SDS011;62988;55.776;37.544;2023-07-13T02:08:15;3.67;;;1.80;;
74503;SDS011;62988;55.776;37.544;2023-07-13T02:10:40;4.10;;;1.80;;
74503;SDS011;62988;55.776;37.544;2023-07-13T02:13:05;8.93;;;2.20;;
74503;SDS011;62988;55.776;37.544;2023-07-13T02:15:31;3.97;;;2.13;;
74503;SDS011;62988;55.776;37.544;2023-07-13T02:17:56;3.50;;;1.80;;
74503;SDS011;62988;55.776;37.544;2023-07-13T02:20:24;6.68;;;2.10;;
74503;SDS011;62988;55.776;37.544;2023-07-13T02:22:49;8.30;;;1.92;;
74503;SDS011;62988;55.776;37.544;2023-07-13T02:25:14;6.53;;;1.60;;
74503;SDS011;62988;55.776;37.544;2023-07-13T02:27:40;5.17;;;1.63;;
74503;SDS011;62988;55.776;37.544;2023-07-13T02:30:05;5.35;;;1.80;;
74503;SDS011;62988;55.776;37.544;2023-07-13T02:32:31;3.53;;;1.80;;
74503;SDS011;62988;55.776;37.544;2023-07-13T02:34:57;5.97;;;1.60;;
74503;SDS011;62988;55.776;37.544;2023-07-13T02:37:22;5.28;;;1.60;;
74503;SDS011;62988;55.776;37.544;2023-07-13T02:39:47;6.63;;;1.75;;
74503;SDS011;62988;55.776;37.544;2023-07-13T02:42:13;5.27;;;1.60;;
74503;SDS011;62988;55.776;37.544;2023-07-13T02:44:38;6.53;;;1.85;;
74503;SDS011;62988;55.776;37.544;2023-07-13T02:47:04;6.10;;;1.67;;
74503;SDS011;62988;55.776;37.544;2023-07-13T02:49:29;8.07;;;2.37;;
74503;SDS011;62988;55.776;37.544;2023-07-13T02:51:54;6.00;;;1.80;;
74503;SDS011;62988;55.776;37.544;2023-07-13T02:54:20;5.33;;;1.80;;
74503;SDS011;62988;55.776;37.544;2023-07-13T02:56:45;3.60;;;1.93;;
74503;SDS011;62988;55.776;37.544;2023-07-13T02:59:10;3.60;;;1.80;;
74503;SDS011;62988;55.776;37.544;2023-07-13T03:01:36;4.38;;;2.10;;
74503;SDS011;62988;55.776;37.544;2023-07-13T03:04:01;2.88;;;1.58;;
74503;SDS011;62988;55.776;37.544;2023-07-13T03:06:27;3.90;;;2.25;;
74503;SDS011;62988;55.776;37.544;2023-07-13T03:08:55;9.57;;;1.70;;
74503;SDS011;62988;55.776;37.544;2023-07-13T03:11:20;3.45;;;1.35;;
74503;SDS011;62988;55.776;37.544;2023-07-13T03:13:46;4.70;;;1.80;;
74503;SDS011;62988;55.776;37.544;2023-07-13T03:16:11;7.85;;;1.83;;
74503;SDS011;62988;55.776;37.544;2023-07-13T03:18:37;4.50;;;1.58;;
74503;SDS011;62988;55.776;37.544;2023-07-13T03:21:03;4.25;;;1.70;;
74503;SDS011;62988;55.776;37.544;2023-07-13T03:23:29;7.32;;;2.28;;
74503;SDS011;62988;55.776;37.544;2023-07-13T03:26:07;6.10;;;1.57;;
74503;SDS011;62988;55.776;37.544;2023-07-13T03:28:32;5.10;;;1.83;;
74503;SDS011;62988;55.776;37.544;2023-07-13T03:31:02;2.92;;;1.67;;
74503;SDS011;62988;55.776;37.544;2023-07-13T03:33:28;5.95;;;2.03;;
74503;SDS011;62988;55.776;37.544;2023-07-13T03:35:53;4.43;;;1.80;;
74503;SDS011;62988;55.776;37.544;2023-07-13T03:38:18;3.00;;;1.70;;
74503;SDS011;62988;55.776;37.544;2023-07-13T03:40:44;5.60;;;1.65;;
74503;SDS011;62988;55.776;37.544;2023-07-13T03:43:10;6.95;;;2.30;;
74503;SDS011;62988;55.776;37.544;2023-07-13T03:45:37;7.10;;;1.90;;
74503;SDS011;62988;55.776;37.544;2023-07-13T03:48:03;3.75;;;1.60;;
74503;SDS011;62988;55.776;37.544;2023-07-13T03:50:28;3.63;;;1.42;;
74503;SDS011;62988;55.776;37.544;2023-07-13T03:52:54;4.70;;;2.27;;
74503;SDS011;62988;55.776;37.544;2023-07-13T03:55:21;6.78;;;1.83;;
74503;SDS011;62988;55.776;37.544;2023-07-13T03:57:46;5.38;;;1.38;;
74503;SDS011;62988;55.776;37.544;2023-07-13T04:00:13;3.88;;;1.77;;
74503;SDS011;62988;55.776;37.544;2023-07-13T04:02:38;5.82;;;1.73;;
74503;SDS011;62988;55.776;37.544;2023-07-13T04:05:04;4.13;;;1.92;;
74503;SDS011;62988;55.776;37.544;2023-07-13T04:07:29;5.82;;;2.05;;
74503;SDS011;62988;55.776;37.544;2023-07-13T04:09:54;3.60;;;1.70;;
74503;SDS011;62988;55.776;37.544;2023-07-13T04:12:20;4.23;;;2.07;;
74503;SDS011;62988;55.776;37.544;2023-07-13T04:14:45;3.50;;;1.37;;
74503;SDS011;62988;55.776;37.544;2023-07-13T04:17:11;4.80;;;1.77;;
74503;SDS011;62988;55.776;37.544;2023-07-13T04:19:36;4.93;;;1.37;;
74503;SDS011;62988;55.776;37.544;2023-07-13T04:22:01;2.80;;;1.43;;
74503;SDS011;62988;55.776;37.544;2023-07-13T04:24:27;8.98;;;2.00;;
74503;SDS011;62988;55.776;37.544;2023-07-13T04:26:52;3.33;;;1.80;;
74503;SDS011;62988;55.776;37.544;2023-07-13T04:29:17;7.10;;;2.10;;
74503;SDS011;62988;55.776;37.544;2023-07-13T04:31:43;4.17;;;1.87;;
74503;SDS011;62988;55.776;37.544;2023-07-13T04:34:08;9.50;;;1.70;;
74503;SDS011;62988;55.776;37.544;2023-07-13T04:36:33;8.47;;;1.97;;
74503;SDS011;62988;55.776;37.544;2023-07-13T04:39:02;4.47;;;1.73;;
74503;SDS011;62988;55.776;37.544;2023-07-13T04:41:27;4.93;;;2.10;;
74503;SDS011;62988;55.776;37.544;2023-07-13T04:43:53;6.07;;;1.90;;
74503;SDS011;62988;55.776;37.544;2023-07-13T04:46:18;5.77;;;2.07;;
74503;SDS011;62988;55.776;37.544;2023-07-13T04:48:44;7.55;;;2.08;;
74503;SDS011;62988;55.776;37.544;2023-07-13T04:51:09;4.43;;;2.13;;
74503;SDS011;62988;55.776;37.544;2023-07-13T04:53:35;8.70;;;1.80;;
74503;SDS011;62988;55.776;37.544;2023-07-13T04:56:00;3.57;;;2.00;;
74503;SDS011;62988;55.776;37.544;2023-07-13T04:58:26;9.38;;;1.88;;
74503;SDS011;62988;55.776;37.544;2023-07-13T05:00:52;7.80;;;2.05;;
74503;SDS011;62988;55.776;37.544;2023-07-13T05:03:18;4.22;;;2.17;;
74503;SDS011;62988;55.776;37.544;2023-07-13T05:05:53;4.35;;;2.25;;
74503;SDS011;62988;55.776;37.544;2023-07-13T05:08:19;9.75;;;1.95;;
74503;SDS011;62988;55.776;37.544;2023-07-13T05:10:44;7.53;;;2.17;;
74503;SDS011;62988;55.776;37.544;2023-07-13T05:13:09;3.70;;;1.93;;
74503;SDS011;62988;55.776;37.544;2023-07-13T05:15:35;4.33;;;1.67;;
74503;SDS011;62988;55.776;37.544;2023-07-13T05:18:00;3.50;;;1.60;;
74503;SDS011;62988;55.776;37.544;2023-07-13T05:20:25;3.40;;;1.63;;
74503;SDS011;62988;55.776;37.544;2023-07-13T05:22:51;2.60;;;1.60;;
74503;SDS011;62988;55.776;37.544;2023-07-13T05:25:16;4.60;;;2.20;;
74503;SDS011;62988;55.776;37.544;2023-07-13T05:27:41;5.18;;;2.17;;
74503;SDS011;62988;55.776;37.544;2023-07-13T05:30:07;7.80;;;1.70;;
74503;SDS011;62988;55.776;37.544;2023-07-13T05:32:35;4.70;;;1.70;;
74503;SDS011;62988;55.776;37.544;2023-07-13T05:35:01;4.67;;;1.50;;
74503;SDS011;62988;55.776;37.544;2023-07-13T05:37:26;4.27;;;1.73;;
74503;SDS011;62988;55.776;37.544;2023-07-13T05:39:51;5.10;;;1.60;;
74503;SDS011;62988;55.776;37.544;2023-07-13T05:42:17;7.70;;;1.95;;
74503;SDS011;62988;55.776;37.544;2023-07-13T05:44:42;8.73;;;2.00;;
74503;SDS011;62988;55.776;37.544;2023-07-13T05:47:08;4.93;;;1.77;;
74503;SDS011;62988;55.776;37.544;2023-07-13T05:49:33;3.70;;;1.60;;
74503;SDS011;62988;55.776;37.544;2023-07-13T05:51:58;2.25;;;1.13;;
74503;SDS011;62988;55.776;37.544;2023-07-13T05:54:24;5.63;;;1.60;;
74503;SDS011;62988;55.776;37.544;2023-07-13T05:56:49;3.50;;;2.10;;
74503;SDS011;62988;55.776;37.544;2023-07-13T05:59:14;3.83;;;1.52;;
74503;SDS011;62988;55.776;37.544;2023-07-13T06:01:40;3.50;;;1.63;;
74503;SDS011;62988;55.776;37.544;2023-07-13T06:04:06;5.05;;;1.52;;
74503;SDS011;62988;55.776;37.544;2023-07-13T06:06:31;6.82;;;2.05;;
74503;SDS011;62988;55.776;37.544;2023-07-13T06:08:57;4.20;;;1.38;;
74503;SDS011;62988;55.776;37.544;2023-07-13T06:11:23;4.47;;;2.07;;
74503;SDS011;62988;55.776;37.544;2023-07-13T06:13:49;4.57;;;1.63;;
74503;SDS011;62988;55.776;37.544;2023-07-13T06:16:15;4.47;;;1.77;;
74503;SDS011;62988;55.776;37.544;2023-07-13T06:18:40;4.07;;;1.60;;
74503;SDS011;62988;55.776;37.544;2023-07-13T06:21:09;2.78;;;1.45;;
74503;SDS011;62988;55.776;37.544;2023-07-13T06:23:36;3.53;;;1.42;;
74503;SDS011;62988;55.776;37.544;2023-07-13T06:26:02;2.83;;;1.58;;
74503;SDS011;62988;55.776;37.544;2023-07-13T06:28:28;2.10;;;1.23;;
74503;SDS011;62988;55.776;37.544;2023-07-13T06:30:53;6.65;;;1.45;;
74503;SDS011;62988;55.776;37.544;2023-07-13T06:33:18;6.30;;;1.60;;
74503;SDS011;62988;55.776;37.544;2023-07-13T06:35:44;2.20;;;1.20;;
74503;SDS011;62988;55.776;37.544;2023-07-13T06:38:09;2.53;;;1.33;;
74503;SDS011;62988;55.776;37.544;2023-07-13T06:40:34;5.27;;;1.77;;
74503;SDS011;62988;55.776;37.544;2023-07-13T06:43:00;8.63;;;1.60;;
74503;SDS011;62988;55.776;37.544;2023-07-13T06:45:25;6.13;;;1.60;;
74503;SDS011;62988;55.776;37.544;2023-07-13T06:47:50;5.60;;;1.77;;
74503;SDS011;62988;55.776;37.544;2023-07-13T06:50:16;4.90;;;2.38;;
74503;SDS011;62988;55.776;37.544;2023-07-13T06:52:41;7.20;;;1.93;;
74503;SDS011;62988;55.776;37.544;2023-07-13T06:55:07;5.57;;;1.87;;
74503;SDS011;62988;55.776;37.544;2023-07-13T06:57:33;2.92;;;1.30;;
74503;SDS011;62988;55.776;37.544;2023-07-13T06:59:58;3.57;;;1.40;;
74503;SDS011;62988;55.776;37.544;2023-07-13T07:02:23;5.53;;;1.90;;
74503;SDS011;62988;55.776;37.544;2023-07-13T07:04:49;5.67;;;1.73;;
74503;SDS011;62988;55.776;37.544;2023-07-13T07:07:15;5.15;;;1.50;;
74503;SDS011;62988;55.776;37.544;2023-07-13T07:09:40;4.60;;;1.85;;
74503;SDS011;62988;55.776;37.544;2023-07-13T07:12:05;4.03;;;1.80;;
74503;SDS011;62988;55.776;37.544;2023-07-13T07:14:31;4.15;;;1.50;;
74503;SDS011;62988;55.776;37.544;2023-07-13T07:16:56;3.53;;;1.35;;
74503;SDS011;62988;55.776;37.544;2023-07-13T07:19:23;7.90;;;1.73;;
74503;SDS011;62988;55.776;37.544;2023-07-13T07:21:49;4.25;;;1.05;;
74503;SDS011;62988;55.776;37.544;2023-07-13T07:24:14;5.03;;;1.20;;
74503;SDS011;62988;55.776;37.544;2023-07-13T07:26:40;4.72;;;1.60;;
74503;SDS011;62988;55.776;37.544;2023-07-13T07:29:06;3.88;;;1.65;;
74503;SDS011;62988;55.776;37.544;2023-07-13T07:31:31;5.57;;;1.77;;
74503;SDS011;62988;55.776;37.544;2023-07-13T07:33:56;3.67;;;1.40;;
74503;SDS011;62988;55.776;37.544;2023-07-13T07:36:22;3.33;;;0.80;;
74503;SDS011;62988;55.776;37.544;2023-07-13T07:38:47;3.10;;;1.47;;
74503;SDS011;62988;55.776;37.544;2023-07-13T07:41:12;1.67;;;0.80;;
74503;SDS011;62988;55.776;37.544;2023-07-13T07:43:38;8.30;;;1.47;;
74503;SDS011;62988;55.776;37.544;2023-07-13T07:46:03;5.03;;;1.63;;
74503;SDS011;62988;55.776;37.544;2023-07-13T07:48:28;5.53;;;2.25;;
74503;SDS011;62988;55.776;37.544;2023-07-13T07:50:54;3.47;;;1.30;;
74503;SDS011;62988;55.776;37.544;2023-07-13T07:53:19;5.90;;;1.87;;
74503;SDS011;62988;55.776;37.544;2023-07-13T07:55:45;3.50;;;1.30;;
74503;SDS011;62988;55.776;37.544;2023-07-13T07:58:10;4.55;;;1.85;;
74503;SDS011;62988;55.776;37.544;2023-07-13T08:00:36;4.70;;;1.40;;
74503;SDS011;62988;55.776;37.544;2023-07-13T08:03:01;6.03;;;2.10;;
74503;SDS011;62988;55.776;37.544;2023-07-13T08:05:27;5.47;;;2.13;;
74503;SDS011;62988;55.776;37.544;2023-07-13T08:07:53;3.20;;;1.60;;
74503;SDS011;62988;55.776;37.544;2023-07-13T08:10:18;4.47;;;1.90;;
74503;SDS011;62988;55.776;37.544;2023-07-13T08:12:44;6.43;;;2.60;;
74503;SDS011;62988;55.776;37.544;2023-07-13T08:15:10;6.60;;;1.93;;
74503;SDS011;62988;55.776;37.544;2023-07-13T08:17:36;4.30;;;1.75;;
74503;SDS011;62988;55.776;37.544;2023-07-13T08:20:02;5.25;;;1.85;;
74503;SDS011;62988;55.776;37.544;2023-07-13T08:22:27;6.45;;;1.52;;
74503;SDS011;62988;55.776;37.544;2023-07-13T08:24:53;4.07;;;1.40;;
74503;SDS011;62988;55.776;37.544;2023-07-13T08:27:21;2.85;;;1.45;;
74503;SDS011;62988;55.776;37.544;2023-07-13T08:29:47;21.83;;;3.22;;
74503;SDS011;62988;55.776;37.544;2023-07-13T08:32:13;4.80;;;1.80;;
74503;SDS011;62988;55.776;37.544;2023-07-13T08:34:38;9.90;;;2.08;;
74503;SDS011;62988;55.776;37.544;2023-07-13T08:37:04;9.20;;;1.58;;
74503;SDS011;62988;55.776;37.544;2023-07-13T08:39:30;5.05;;;1.80;;
74503;SDS011;62988;55.776;37.544;2023-07-13T08:41:57;3.88;;;1.70;;
74503;SDS011;62988;55.776;37.544;2023-07-13T08:44:30;5.00;;;1.67;;
74503;SDS011;62988;55.776;37.544;2023-07-13T08:47:01;6.90;;;2.22;;
74503;SDS011;62988;55.776;37.544;2023-07-13T08:49:27;3.42;;;1.35;;
74503;SDS011;62988;55.776;37.544;2023-07-13T08:52:01;4.43;;;2.13;;
74503;SDS011;62988;55.776;37.544;2023-07-13T08:54:38;9.32;;;2.17;;
74503;SDS011;62988;55.776;37.544;2023-07-13T08:57:18;5.03;;;1.60;;
74503;SDS011;62988;55.776;37.544;2023-07-13T08:59:44;5.25;;;2.30;;
74503;SDS011;62988;55.776;37.544;2023-07-13T09:02:34;5.93;;;2.05;;
74503;SDS011;62988;55.776;37.544;2023-07-13T09:05:10;5.40;;;1.95;;
74503;SDS011;62988;55.776;37.544;2023-07-13T09:10:23;3.83;;;2.00;;
74503;SDS011;62988;55.776;37.544;2023-07-13T09:12:53;4.43;;;2.20;;
74503;SDS011;62988;55.776;37.544;2023-07-13T09:17:50;6.38;;;2.13;;
74503;SDS011;62988;55.776;37.544;2023-07-13T09:20:31;6.97;;;2.67;;
74503;SDS011;62988;55.776;37.544;2023-07-13T09:22:59;5.18;;;2.28;;
74503;SDS011;62988;55.776;37.544;2023-07-13T09:25:30;5.55;;;2.30;;
74503;SDS011;62988;55.776;37.544;2023-07-13T09:27:57;5.88;;;2.90;;
74503;SDS011;62988;55.776;37.544;2023-07-13T09:30:25;6.45;;;2.33;;
74503;SDS011;62988;55.776;37.544;2023-07-13T09:32:52;5.82;;;2.75;;
74503;SDS011;62988;55.776;37.544;2023-07-13T09:35:21;7.97;;;3.17;;
74503;SDS011;62988;55.776;37.544;2023-07-13T09:37:46;13.63;;;3.10;;
74503;SDS011;62988;55.776;37.544;2023-07-13T09:40:24;10.68;;;3.25;;
74503;SDS011;62988;55.776;37.544;2023-07-13T09:42:52;6.60;;;2.45;;
74503;SDS011;62988;55.776;37.544;2023-07-13T09:45:29;7.70;;;2.30;;
74503;SDS011;62988;55.776;37.544;2023-07-13T09:48:05;6.72;;;2.60;;
74503;SDS011;62988;55.776;37.544;2023-07-13T09:50:30;6.35;;;2.70;;
74503;SDS011;62988;55.776;37.544;2023-07-13T09:52:56;7.27;;;2.50;;
74503;SDS011;62988;55.776;37.544;2023-07-13T09:57:52;5.57;;;2.67;;
74503;SDS011;62988;55.776;37.544;2023-07-13T10:00:28;6.97;;;2.97;;
74503;SDS011;62988;55.776;37.544;2023-07-13T10:03:01;5.53;;;2.45;;
74503;SDS011;62988;55.776;37.544;2023-07-13T10:05:28;8.63;;;3.20;;
74503;SDS011;62988;55.776;37.544;2023-07-13T10:08:01;5.93;;;2.53;;
74503;SDS011;62988;55.776;37.544;2023-07-13T10:10:27;6.55;;;2.88;;
74503;SDS011;62988;55.776;37.544;2023-07-13T10:12:52;5.23;;;2.43;;
74503;SDS011;62988;55.776;37.544;2023-07-13T10:15:19;17.50;;;2.70;;
74503;SDS011;62988;55.776;37.544;2023-07-13T10:17:45;4.25;;;2.25;;
74503;SDS011;62988;55.776;37.544;2023-07-13T10:20:11;5.40;;;2.30;;
74503;SDS011;62988;55.776;37.544;2023-07-13T10:25:21;4.85;;;2.17;;
74503;SDS011;62988;55.776;37.544;2023-07-13T10:27:48;6.72;;;2.35;;
74503;SDS011;62988;55.776;37.544;2023-07-13T10:30:17;5.25;;;2.15;;
74503;SDS011;62988;55.776;37.544;2023-07-13T10:32:45;6.10;;;2.00;;
74503;SDS011;62988;55.776;37.544;2023-07-13T10:35:12;7.88;;;2.25;;
74503;SDS011;62988;55.776;37.544;2023-07-13T10:40:06;2.65;;;1.45;;
74503;SDS011;62988;55.776;37.544;2023-07-13T10:42:38;6.32;;;2.45;;
74503;SDS011;62988;55.776;37.544;2023-07-13T10:45:23;8.05;;;2.15;;
74503;SDS011;62988;55.776;37.544;2023-07-13T10:47:49;5.78;;;2.50;;
74503;SDS011;62988;55.776;37.544;2023-07-13T10:50:24;8.80;;;2.20;;
74503;SDS011;62988;55.776;37.544;2023-07-13T10:52:51;5.03;;;2.28;;
74503;SDS011;62988;55.776;37.544;2023-07-13T10:58:11;9.02;;;3.00;;
74503;SDS011;62988;55.776;37.544;2023-07-13T11:00:43;8.75;;;2.05;;
74503;SDS011;62988;55.776;37.544;2023-07-13T11:03:13;7.22;;;2.47;;
74503;SDS011;62988;55.776;37.544;2023-07-13T11:05:39;6.45;;;2.20;;
74503;SDS011;62988;55.776;37.544;2023-07-13T11:08:23;7.15;;;2.42;;
74503;SDS011;62988;55.776;37.544;2023-07-13T11:10:56;3.90;;;1.80;;
74503;SDS011;62988;55.776;37.544;2023-07-13T11:13:39;4.65;;;2.20;;
74503;SDS011;62988;55.776;37.544;2023-07-13T11:18:46;5.03;;;2.37;;
74503;SDS011;62988;55.776;37.544;2023-07-13T11:21:13;4.38;;;1.52;;
74503;SDS011;62988;55.776;37.544;2023-07-13T11:23:42;5.40;;;2.50;;
74503;SDS011;62988;55.776;37.544;2023-07-13T11:26:37;3.88;;;1.60;;
74503;SDS011;62988;55.776;37.544;2023-07-13T11:28:53;5.60;;;2.22;;
74503;SDS011;62988;55.776;37.544;2023-07-13T11:31:18;7.03;;;2.13;;
74503;SDS011;62988;55.776;37.544;2023-07-13T11:33:52;3.70;;;1.45;;
74503;SDS011;62988;55.776;37.544;2023-07-13T11:36:19;7.60;;;2.83;;
74503;SDS011;62988;55.776;37.544;2023-07-13T11:41:19;7.57;;;2.38;;
74503;SDS011;62988;55.776;37.544;2023-07-13T11:43:49;7.63;;;2.53;;
74503;SDS011;62988;55.776;37.544;2023-07-13T11:46:24;5.90;;;3.33;;
74503;SDS011;62988;55.776;37.544;2023-07-13T11:48:50;8.15;;;3.00;;
74503;SDS011;62988;55.776;37.544;2023-07-13T11:51:18;9.02;;;3.33;;
74503;SDS011;62988;55.776;37.544;2023-07-13T11:53:46;7.80;;;3.42;;
74503;SDS011;62988;55.776;37.544;2023-07-13T11:56:12;11.90;;;3.25;;
74503;SDS011;62988;55.776;37.544;2023-07-13T11:58:37;8.27;;;2.95;;
74503;SDS011;62988;55.776;37.544;2023-07-13T12:01:03;10.35;;;3.00;;
74503;SDS011;62988;55.776;37.544;2023-07-13T12:03:32;12.20;;;2.47;;
74503;SDS011;62988;55.776;37.544;2023-07-13T12:05:59;8.38;;;2.53;;
74503;SDS011;62988;55.776;37.544;2023-07-13T12:08:26;8.57;;;2.90;;
74503;SDS011;62988;55.776;37.544;2023-07-13T12:11:04;7.18;;;2.72;;
74503;SDS011;62988;55.776;37.544;2023-07-13T12:13:34;8.82;;;2.13;;
74503;SDS011;62988;55.776;37.544;2023-07-13T12:16:00;4.30;;;1.85;;
74503;SDS011;62988;55.776;37.544;2023-07-13T12:18:28;6.22;;;2.53;;
74503;SDS011;62988;55.776;37.544;2023-07-13T12:23:30;6.87;;;3.00;;
74503;SDS011;62988;55.776;37.544;2023-07-13T12:25:57;10.98;;;2.60;;
74503;SDS011;62988;55.776;37.544;2023-07-13T12:28:28;5.53;;;2.47;;
74503;SDS011;62988;55.776;37.544;2023-07-13T12:30:59;4.55;;;2.58;;
74503;SDS011;62988;55.776;37.544;2023-07-13T12:33:28;7.75;;;3.45;;
74503;SDS011;62988;55.776;37.544;2023-07-13T12:35:53;7.65;;;3.55;;
74503;SDS011;62988;55.776;37.544;2023-07-13T12:38:18;5.90;;;3.03;;
74503;SDS011;62988;55.776;37.544;2023-07-13T12:40:48;6.10;;;3.00;;
74503;SDS011;62988;55.776;37.544;2023-07-13T12:43:14;4.50;;;2.50;;
74503;SDS011;62988;55.776;37.544;2023-07-13T12:46:02;5.28;;;2.95;;
74503;SDS011;62988;55.776;37.544;2023-07-13T12:48:25;8.70;;;2.97;;
74503;SDS011;62988;55.776;37.544;2023-07-13T12:50:51;4.75;;;1.83;;
74503;SDS011;62988;55.776;37.544;2023-07-13T12:53:22;4.68;;;2.03;;
74503;SDS011;62988;55.776;37.544;2023-07-13T12:58:16;4.50;;;2.20;;
74503;SDS011;62988;55.776;37.544;2023-07-13T13:00:47;6.22;;;2.13;;
74503;SDS011;62988;55.776;37.544;2023-07-13T13:03:21;7.10;;;2.20;;
74503;SDS011;62988;55.776;37.544;2023-07-13T13:05:47;7.47;;;2.50;;
74503;SDS011;62988;55.776;37.544;2023-07-13T13:08:12;5.57;;;2.70;;
74503;SDS011;62988;55.776;37.544;2023-07-13T13:10:38;6.90;;;2.50;;
74503;SDS011;62988;55.776;37.544;2023-07-13T13:13:04;8.18;;;2.83;;
74503;SDS011;62988;55.776;37.544;2023-07-13T13:15:29;5.75;;;2.28;;
74503;SDS011;62988;55.776;37.544;2023-07-13T13:17:55;5.82;;;2.85;;
74503;SDS011;62988;55.776;37.544;2023-07-13T13:20:21;7.72;;;2.13;;
74503;SDS011;62988;55.776;37.544;2023-07-13T13:22:46;7.95;;;3.05;;
74503;SDS011;62988;55.776;37.544;2023-07-13T13:25:13;7.22;;;2.78;;
74503;SDS011;62988;55.776;37.544;2023-07-13T13:27:42;4.47;;;2.08;;
74503;SDS011;62988;55.776;37.544;2023-07-13T13:30:11;9.70;;;2.88;;
74503;SDS011;62988;55.776;37.544;2023-07-13T13:32:38;5.72;;;2.42;;
74503;SDS011;62988;55.776;37.544;2023-07-13T13:35:04;4.70;;;2.53;;
74503;SDS011;62988;55.776;37.544;2023-07-13T13:37:31;5.40;;;2.47;;
74503;SDS011;62988;55.776;37.544;2023-07-13T13:39:56;7.95;;;2.65;;
74503;SDS011;62988;55.776;37.544;2023-07-13T13:42:22;9.32;;;2.97;;
74503;SDS011;62988;55.776;37.544;2023-07-13T13:44:50;6.40;;;2.90;;
74503;SDS011;62988;55.776;37.544;2023-07-13T13:47:29;4.82;;;2.33;;
74503;SDS011;62988;55.776;37.544;2023-07-13T13:49:55;8.38;;;2.50;;
74503;SDS011;62988;55.776;37.544;2023-07-13T13:52:21;6.25;;;2.50;;
74503;SDS011;62988;55.776;37.544;2023-07-13T13:54:46;5.90;;;2.27;;
74503;SDS011;62988;55.776;37.544;2023-07-13T13:57:11;4.60;;;1.73;;
74503;SDS011;62988;55.776;37.544;2023-07-13T13:59:37;8.85;;;2.30;;
74503;SDS011;62988;55.776;37.544;2023-07-13T14:02:11;5.82;;;2.20;;
74503;SDS011;62988;55.776;37.544;2023-07-13T14:04:44;6.72;;;2.30;;
74503;SDS011;62988;55.776;37.544;2023-07-13T14:07:10;7.97;;;2.40;;
74503;SDS011;62988;55.776;37.544;2023-07-13T14:09:35;7.43;;;2.30;;
74503;SDS011;62988;55.776;37.544;2023-07-13T14:12:00;5.32;;;2.55;;
74503;SDS011;62988;55.776;37.544;2023-07-13T14:14:26;6.80;;;3.10;;
74503;SDS011;62988;55.776;37.544;2023-07-13T14:16:52;8.75;;;3.53;;
74503;SDS011;62988;55.776;37.544;2023-07-13T14:19:21;8.13;;;3.05;;
74503;SDS011;62988;55.776;37.544;2023-07-13T14:21:47;4.75;;;2.63;;
74503;SDS011;62988;55.776;37.544;2023-07-13T14:24:18;7.97;;;2.90;;
74503;SDS011;62988;55.776;37.544;2023-07-13T14:26:43;7.93;;;3.37;;
74503;SDS011;62988;55.776;37.544;2023-07-13T14:29:16;7.70;;;2.70;;
74503;SDS011;62988;55.776;37.544;2023-07-13T14:31:42;4.90;;;2.30;;
74503;SDS011;62988;55.776;37.544;2023-07-13T14:34:09;9.90;;;3.33;;
74503;SDS011;62988;55.776;37.544;2023-07-13T14:36:45;7.70;;;3.05;;
74503;SDS011;62988;55.776;37.544;2023-07-13T14:39:15;5.75;;;2.80;;
74503;SDS011;62988;55.776;37.544;2023-07-13T14:41:42;12.13;;;2.92;;
74503;SDS011;62988;55.776;37.544;2023-07-13T14:44:11;7.20;;;2.35;;
74503;SDS011;62988;55.776;37.544;2023-07-13T14:46:36;5.57;;;2.58;;
74503;SDS011;62988;55.776;37.544;2023-07-13T14:49:06;11.63;;;3.15;;
74503;SDS011;62988;55.776;37.544;2023-07-13T14:51:34;5.82;;;1.83;;
74503;SDS011;62988;55.776;37.544;2023-07-13T14:54:03;9.07;;;2.90;;
74503;SDS011;62988;55.776;37.544;2023-07-13T14:56:29;5.45;;;2.97;;
74503;SDS011;62988;55.776;37.544;2023-07-13T14:58:55;5.43;;;2.60;;
74503;SDS011;62988;55.776;37.544;2023-07-13T15:01:21;4.38;;;2.00;;
74503;SDS011;62988;55.776;37.544;2023-07-13T15:03:47;6.95;;;2.72;;